Terminal Aerodrome Forecast
Issued by NWS

Home | Current Version | Previous Version | Text Only | Print | Product List | Glossary On
Versions: 1 2 3 4 5 6 7 8 9 10 11 12 13 14 15 16 17 18 19 20 21 22 23 24 25
000
FTUS41 KBUF 011100
TAFJHW
TAF
KJHW 011139Z 0112/0212 05005KT 1/4SM -DZ FG OVC001
     FM011300 10005KT 1/2SM -DZ FG BKN006
     FM011400 10005KT P6SM -DZ BKN012
     FM011500 11005KT P6SM BKN012
     FM011700 11004KT P6SM BKN250
     FM011900 VRB03KT P6SM BKN035
     FM020000 10004KT P6SM SCT035
     FM020700 15007KT P6SM SCT250
     FM021100 16007KT P6SM SCT015
      AMD LTD TO CLD VIS AND WIND=

USA.gov is the U.S. government's official web portal to all federal, state and local government web resources and services.